DLH4RV EKCH-EDDF
Flight info
| Callsign | DLH4RV |
|---|---|
| Flight time | 1h 30m |
| Altitude | 34000 |
| Route | NEXEN T503 GIMRU DCT MICOS DCT RIMET/N0448F310 T157 KOKEB/N0407F230 T157 KERAX KERAX5D |
| Aircraft | A320/M-SDE3FGHIRWY/LB1 |
Departure
| Time | 2026-05-07 19:33 |
|---|---|
| Airport | Copenhagen Kastrup Airport (EKCH) |
Arrival
| Time | 2026-05-07 21:03 |
|---|---|
| Airport | Frankfurt Main Airport (EDDF) |
| Time | Latitude | Longitude | Altitude | Speed | Heading |
|---|---|---|---|---|---|
| 2026-05-07 18:50 | 55.62608 | 12.64901 | 24 ft | 0 kts | 92° |
| 2026-05-07 19:14 | 55.62608 | 12.64875 | 24 ft | 2 kts | 92° |
| 2026-05-07 19:14 | 55.62609 | 12.64847 | 24 ft | 2 kts | 92° |
| 2026-05-07 19:14 | 55.62609 | 12.64818 | 24 ft | 2 kts | 92° |
| 2026-05-07 19:15 | 55.62610 | 12.64789 | 24 ft | 2 kts | 93° |
| 2026-05-07 19:15 | 55.62613 | 12.64761 | 25 ft | 2 kts | 154° |
| 2026-05-07 19:15 | 55.62628 | 12.64761 | 28 ft | 2 kts | 215° |
| 2026-05-07 19:15 | 55.62632 | 12.64768 | 26 ft | 2 kts | 195° |
| 2026-05-07 19:16 | 55.62620 | 12.64768 | 29 ft | 0 kts | 182° |
| 2026-05-07 19:21 | 55.62617 | 12.64767 | 24 ft | 2 kts | 182° |
| 2026-05-07 19:21 | 55.62582 | 12.64768 | 24 ft | 6 kts | 176° |
| 2026-05-07 19:22 | 55.62544 | 12.64770 | 26 ft | 5 kts | 179° |
| 2026-05-07 19:22 | 55.62514 | 12.64771 | 24 ft | 4 kts | 179° |
| 2026-05-07 19:22 | 55.62475 | 12.64772 | 25 ft | 9 kts | 178° |
| 2026-05-07 19:22 | 55.62426 | 12.64778 | 24 ft | 6 kts | 176° |
| 2026-05-07 19:23 | 55.62388 | 12.64795 | 24 ft | 5 kts | 149° |
| 2026-05-07 19:23 | 55.62368 | 12.64833 | 24 ft | 6 kts | 126° |
| 2026-05-07 19:23 | 55.62314 | 12.64888 | 24 ft | 10 kts | 190° |
| 2026-05-07 19:23 | 55.62260 | 12.64833 | 24 ft | 8 kts | 216° |
| 2026-05-07 19:24 | 55.62219 | 12.64780 | 24 ft | 6 kts | 216° |
| 2026-05-07 19:24 | 55.62188 | 12.64739 | 24 ft | 5 kts | 214° |
| 2026-05-07 19:24 | 55.62150 | 12.64699 | 24 ft | 10 kts | 212° |
| 2026-05-07 19:24 | 55.62091 | 12.64630 | 25 ft | 10 kts | 213° |
| 2026-05-07 19:25 | 55.62038 | 12.64568 | 25 ft | 8 kts | 213° |
| 2026-05-07 19:25 | 55.61993 | 12.64523 | 24 ft | 7 kts | 205° |
| 2026-05-07 19:25 | 55.61954 | 12.64503 | 24 ft | 5 kts | 192° |
| 2026-05-07 19:25 | 55.61923 | 12.64497 | 24 ft | 4 kts | 179° |
| 2026-05-07 19:26 | 55.61872 | 12.64516 | 25 ft | 8 kts | 167° |
| 2026-05-07 19:26 | 55.61821 | 12.64534 | 24 ft | 7 kts | 169° |
| 2026-05-07 19:26 | 55.61779 | 12.64548 | 26 ft | 6 kts | 169° |
| 2026-05-07 19:26 | 55.61741 | 12.64560 | 24 ft | 7 kts | 169° |
| 2026-05-07 19:27 | 55.61669 | 12.64556 | 24 ft | 14 kts | 205° |
| 2026-05-07 19:27 | 55.61579 | 12.64453 | 26 ft | 15 kts | 213° |
| 2026-05-07 19:27 | 55.61497 | 12.64359 | 24 ft | 13 kts | 213° |
| 2026-05-07 19:27 | 55.61426 | 12.64277 | 24 ft | 11 kts | 213° |
| 2026-05-07 19:28 | 55.61364 | 12.64205 | 26 ft | 10 kts | 213° |
| 2026-05-07 19:28 | 55.61312 | 12.64145 | 24 ft | 8 kts | 213° |
| 2026-05-07 19:28 | 55.61267 | 12.64094 | 25 ft | 7 kts | 213° |
| 2026-05-07 19:28 | 55.61230 | 12.64051 | 25 ft | 6 kts | 213° |
| 2026-05-07 19:29 | 55.61209 | 12.64027 | 24 ft | 5 kts | 213° |
| 2026-05-07 19:29 | 55.61184 | 12.63998 | 24 ft | 4 kts | 213° |
| 2026-05-07 19:29 | 55.61109 | 12.63912 | 25 ft | 14 kts | 213° |
| 2026-05-07 19:29 | 55.61026 | 12.63817 | 24 ft | 14 kts | 211° |
| 2026-05-07 19:30 | 55.60947 | 12.63725 | 24 ft | 13 kts | 213° |
| 2026-05-07 19:30 | 55.60872 | 12.63639 | 26 ft | 13 kts | 213° |
| 2026-05-07 19:30 | 55.60817 | 12.63575 | 24 ft | 17 kts | 213° |
| 2026-05-07 19:30 | 55.60701 | 12.63444 | 24 ft | 21 kts | 213° |
| 2026-05-07 19:31 | 55.60583 | 12.63277 | 24 ft | 22 kts | 223° |
| 2026-05-07 19:31 | 55.60477 | 12.63123 | 24 ft | 17 kts | 207° |
| 2026-05-07 19:31 | 55.60381 | 12.63202 | 24 ft | 16 kts | 133° |
| 2026-05-07 19:31 | 55.60355 | 12.63373 | 28 ft | 10 kts | 37° |
| 2026-05-07 19:32 | 55.60393 | 12.63429 | 27 ft | 12 kts | 41° |
| 2026-05-07 19:32 | 55.60558 | 12.63685 | 24 ft | 65 kts | 41° |
| 2026-05-07 19:32 | 55.61061 | 12.64464 | 23 ft | 126 kts | 41° |
| 2026-05-07 19:32 | 55.61853 | 12.65664 | 56 ft | 169 kts | 39° |
| 2026-05-07 19:33 | 55.62728 | 12.67014 | 699 ft | 167 kts | 40° |
| 2026-05-07 19:33 | 55.63592 | 12.68393 | 1334 ft | 173 kts | 40° |
| 2026-05-07 19:33 | 55.64545 | 12.69939 | 1621 ft | 198 kts | 41° |
| 2026-05-07 19:33 | 55.65632 | 12.71677 | 1915 ft | 223 kts | 43° |
| 2026-05-07 19:34 | 55.66570 | 12.73982 | 2448 ft | 241 kts | 65° |
| 2026-05-07 19:34 | 55.66893 | 12.76970 | 3110 ft | 256 kts | 93° |
| 2026-05-07 19:34 | 55.66342 | 12.80015 | 3890 ft | 268 kts | 122° |
| 2026-05-07 19:34 | 55.65008 | 12.82321 | 4775 ft | 272 kts | 150° |
| 2026-05-07 19:35 | 55.63229 | 12.83389 | 5738 ft | 274 kts | 170° |
| 2026-05-07 19:35 | 55.61331 | 12.83249 | 6612 ft | 276 kts | 199° |
| 2026-05-07 19:35 | 55.59716 | 12.81447 | 7482 ft | 277 kts | 222° |
| 2026-05-07 19:35 | 55.58298 | 12.79123 | 8307 ft | 280 kts | 221° |
| 2026-05-07 19:36 | 55.56819 | 12.76857 | 9109 ft | 284 kts | 219° |
| 2026-05-07 19:36 | 55.55289 | 12.74613 | 9907 ft | 288 kts | 218° |
| 2026-05-07 19:36 | 55.53737 | 12.72398 | 10589 ft | 293 kts | 218° |
| 2026-05-07 19:36 | 55.52121 | 12.70116 | 11147 ft | 305 kts | 218° |
| 2026-05-07 19:37 | 55.50413 | 12.67715 | 11429 ft | 325 kts | 218° |
| 2026-05-07 19:37 | 55.48606 | 12.65124 | 11677 ft | 344 kts | 219° |
| 2026-05-07 19:37 | 55.46720 | 12.62358 | 12030 ft | 359 kts | 220° |
| 2026-05-07 19:37 | 55.44794 | 12.59490 | 12644 ft | 364 kts | 220° |
| 2026-05-07 19:38 | 55.42839 | 12.56635 | 13376 ft | 367 kts | 219° |
| 2026-05-07 19:38 | 55.40854 | 12.53782 | 14044 ft | 370 kts | 219° |
| 2026-05-07 19:38 | 55.38874 | 12.50954 | 14648 ft | 373 kts | 219° |
| 2026-05-07 19:38 | 55.36857 | 12.48073 | 15258 ft | 376 kts | 219° |
| 2026-05-07 19:39 | 55.34824 | 12.45166 | 15879 ft | 378 kts | 219° |
| 2026-05-07 19:39 | 55.32778 | 12.42234 | 16497 ft | 380 kts | 220° |
| 2026-05-07 19:39 | 55.30719 | 12.39283 | 17097 ft | 383 kts | 220° |
| 2026-05-07 19:39 | 55.28649 | 12.36323 | 17703 ft | 386 kts | 220° |
| 2026-05-07 19:40 | 55.26554 | 12.33336 | 18302 ft | 389 kts | 220° |
| 2026-05-07 19:40 | 55.24445 | 12.30331 | 18825 ft | 392 kts | 220° |
| 2026-05-07 19:40 | 55.22323 | 12.27310 | 19329 ft | 395 kts | 220° |
| 2026-05-07 19:40 | 55.20180 | 12.24257 | 19832 ft | 398 kts | 219° |
| 2026-05-07 19:41 | 55.18018 | 12.21185 | 20324 ft | 402 kts | 219° |
| 2026-05-07 19:41 | 55.15872 | 12.18142 | 20804 ft | 405 kts | 219° |
| 2026-05-07 19:41 | 55.13671 | 12.15032 | 21267 ft | 408 kts | 219° |
| 2026-05-07 19:41 | 55.11456 | 12.11902 | 21712 ft | 411 kts | 219° |
| 2026-05-07 19:42 | 55.09223 | 12.08746 | 22180 ft | 414 kts | 219° |
| 2026-05-07 19:42 | 55.06971 | 12.05567 | 22623 ft | 417 kts | 219° |
| 2026-05-07 19:42 | 55.04707 | 12.02378 | 23056 ft | 420 kts | 219° |
| 2026-05-07 19:42 | 55.02423 | 11.99168 | 23476 ft | 423 kts | 219° |
| 2026-05-07 19:43 | 55.00125 | 11.95946 | 23858 ft | 426 kts | 219° |
| 2026-05-07 19:43 | 54.97802 | 11.92693 | 24149 ft | 430 kts | 219° |
| 2026-05-07 19:43 | 54.95479 | 11.89441 | 24258 ft | 438 kts | 219° |
| 2026-05-07 19:43 | 54.93084 | 11.86088 | 24386 ft | 445 kts | 219° |
| 2026-05-07 19:44 | 54.90654 | 11.82694 | 24548 ft | 450 kts | 219° |
| 2026-05-07 19:44 | 54.88205 | 11.79281 | 24792 ft | 453 kts | 219° |
| 2026-05-07 19:44 | 54.85733 | 11.75844 | 25036 ft | 456 kts | 219° |
| 2026-05-07 19:44 | 54.83252 | 11.72398 | 25330 ft | 457 kts | 219° |
| 2026-05-07 19:45 | 54.80771 | 11.68957 | 25675 ft | 457 kts | 219° |
| 2026-05-07 19:45 | 54.78292 | 11.65530 | 26021 ft | 456 kts | 218° |
| 2026-05-07 19:45 | 54.75808 | 11.62103 | 26377 ft | 456 kts | 218° |
| 2026-05-07 19:45 | 54.73329 | 11.58690 | 26732 ft | 456 kts | 218° |
| 2026-05-07 19:46 | 54.70845 | 11.55275 | 27099 ft | 455 kts | 218° |
| 2026-05-07 19:46 | 54.68372 | 11.51875 | 27465 ft | 455 kts | 218° |
| 2026-05-07 19:46 | 54.65931 | 11.48522 | 27835 ft | 454 kts | 218° |
| 2026-05-07 19:46 | 54.63461 | 11.45134 | 28201 ft | 454 kts | 218° |
| 2026-05-07 19:47 | 54.60989 | 11.41749 | 28592 ft | 453 kts | 218° |
| 2026-05-07 19:47 | 54.58520 | 11.38374 | 28983 ft | 453 kts | 218° |
| 2026-05-07 19:47 | 54.56055 | 11.35005 | 29364 ft | 452 kts | 218° |
| 2026-05-07 19:47 | 54.53594 | 11.31644 | 29777 ft | 451 kts | 218° |
| 2026-05-07 19:48 | 54.51142 | 11.28298 | 30182 ft | 450 kts | 218° |
| 2026-05-07 19:48 | 54.48694 | 11.24969 | 30520 ft | 449 kts | 218° |
| 2026-05-07 19:48 | 54.46240 | 11.21646 | 30878 ft | 447 kts | 218° |
| 2026-05-07 19:48 | 54.43829 | 11.18391 | 31224 ft | 446 kts | 218° |
| 2026-05-07 19:49 | 54.41361 | 11.15059 | 31571 ft | 445 kts | 218° |
| 2026-05-07 19:49 | 54.38932 | 11.11784 | 31948 ft | 444 kts | 218° |
| 2026-05-07 19:49 | 54.36535 | 11.08564 | 32306 ft | 443 kts | 217° |
| 2026-05-07 19:49 | 54.34105 | 11.05342 | 32667 ft | 441 kts | 214° |
| 2026-05-07 19:50 | 54.31501 | 11.02593 | 33050 ft | 439 kts | 206° |
| 2026-05-07 19:50 | 54.28709 | 11.00534 | 33434 ft | 436 kts | 197° |
| 2026-05-07 19:50 | 54.25798 | 10.99180 | 33817 ft | 433 kts | 189° |
| 2026-05-07 19:50 | 54.22823 | 10.98332 | 34101 ft | 434 kts | 188° |
| 2026-05-07 19:51 | 54.16782 | 10.96648 | 34142 ft | 446 kts | 188° |
| 2026-05-07 19:51 | 54.10598 | 10.94913 | 34141 ft | 453 kts | 188° |
| 2026-05-07 19:52 | 54.04367 | 10.93154 | 34140 ft | 453 kts | 188° |
| 2026-05-07 19:52 | 53.98188 | 10.91423 | 34136 ft | 453 kts | 188° |
| 2026-05-07 19:53 | 53.91971 | 10.89691 | 34136 ft | 452 kts | 188° |
| 2026-05-07 19:53 | 53.85764 | 10.87972 | 34140 ft | 452 kts | 188° |
| 2026-05-07 19:54 | 53.79550 | 10.86246 | 34138 ft | 452 kts | 189° |
| 2026-05-07 19:54 | 53.73348 | 10.84525 | 34138 ft | 452 kts | 189° |
| 2026-05-07 19:55 | 53.67143 | 10.82823 | 34135 ft | 452 kts | 189° |
| 2026-05-07 19:55 | 53.60990 | 10.81143 | 34130 ft | 451 kts | 189° |
| 2026-05-07 19:56 | 53.54736 | 10.79435 | 34128 ft | 459 kts | 189° |
| 2026-05-07 19:56 | 53.48390 | 10.77697 | 34124 ft | 465 kts | 189° |
| 2026-05-07 19:57 | 53.41971 | 10.75930 | 34120 ft | 469 kts | 189° |
| 2026-05-07 19:57 | 53.35515 | 10.74174 | 34119 ft | 471 kts | 189° |
| 2026-05-07 19:58 | 53.29040 | 10.72437 | 34117 ft | 472 kts | 189° |
| 2026-05-07 19:58 | 53.22598 | 10.70713 | 34117 ft | 472 kts | 189° |
| 2026-05-07 19:59 | 53.16116 | 10.68971 | 34118 ft | 472 kts | 189° |
| 2026-05-07 19:59 | 53.09628 | 10.67229 | 34116 ft | 472 kts | 189° |
| 2026-05-07 20:00 | 53.03146 | 10.65489 | 34121 ft | 472 kts | 189° |
| 2026-05-07 20:00 | 52.96659 | 10.63765 | 34119 ft | 472 kts | 189° |
| 2026-05-07 20:01 | 52.90177 | 10.62045 | 34111 ft | 472 kts | 189° |
| 2026-05-07 20:01 | 52.83735 | 10.60335 | 34115 ft | 472 kts | 189° |
| 2026-05-07 20:02 | 52.77251 | 10.58631 | 34120 ft | 472 kts | 189° |
| 2026-05-07 20:02 | 52.70782 | 10.56933 | 34105 ft | 471 kts | 189° |
| 2026-05-07 20:03 | 52.64298 | 10.55237 | 34112 ft | 471 kts | 189° |
| 2026-05-07 20:03 | 52.57833 | 10.53542 | 34121 ft | 471 kts | 189° |
| 2026-05-07 20:04 | 52.51355 | 10.51854 | 34126 ft | 471 kts | 189° |
| 2026-05-07 20:04 | 52.44923 | 10.50195 | 34136 ft | 471 kts | 189° |
| 2026-05-07 20:05 | 52.38456 | 10.48512 | 34141 ft | 471 kts | 189° |
| 2026-05-07 20:05 | 52.31972 | 10.46828 | 34139 ft | 471 kts | 189° |
| 2026-05-07 20:06 | 52.25495 | 10.45158 | 34141 ft | 471 kts | 189° |
| 2026-05-07 20:06 | 52.19018 | 10.43493 | 34134 ft | 471 kts | 189° |
| 2026-05-07 20:07 | 52.12543 | 10.41830 | 34123 ft | 471 kts | 189° |
| 2026-05-07 20:07 | 52.06105 | 10.40191 | 34115 ft | 471 kts | 189° |
| 2026-05-07 20:08 | 51.99618 | 10.38543 | 34113 ft | 471 kts | 189° |
| 2026-05-07 20:08 | 51.93137 | 10.36904 | 34108 ft | 471 kts | 189° |
| 2026-05-07 20:09 | 51.86655 | 10.35258 | 34110 ft | 472 kts | 189° |
| 2026-05-07 20:10 | 51.76974 | 10.32806 | 34110 ft | 471 kts | 189° |
| 2026-05-07 20:10 | 51.70501 | 10.31184 | 34112 ft | 471 kts | 189° |
| 2026-05-07 20:10 | 51.67271 | 10.30374 | 33891 ft | 469 kts | 189° |
| 2026-05-07 20:11 | 51.64042 | 10.29565 | 33409 ft | 468 kts | 189° |
| 2026-05-07 20:11 | 51.60835 | 10.28765 | 33049 ft | 466 kts | 189° |
| 2026-05-07 20:11 | 51.57640 | 10.27966 | 32550 ft | 466 kts | 189° |
| 2026-05-07 20:11 | 51.54450 | 10.27167 | 31673 ft | 459 kts | 189° |
| 2026-05-07 20:12 | 51.51374 | 10.26401 | 30804 ft | 447 kts | 189° |
| 2026-05-07 20:12 | 51.48327 | 10.25646 | 29840 ft | 443 kts | 189° |
| 2026-05-07 20:12 | 51.45286 | 10.24891 | 28782 ft | 442 kts | 189° |
| 2026-05-07 20:12 | 51.42253 | 10.24138 | 27768 ft | 441 kts | 190° |
| 2026-05-07 20:13 | 51.39218 | 10.23383 | 27029 ft | 439 kts | 190° |
| 2026-05-07 20:13 | 51.36223 | 10.22641 | 26515 ft | 432 kts | 190° |
| 2026-05-07 20:13 | 51.33267 | 10.22003 | 25999 ft | 427 kts | 185° |
| 2026-05-07 20:13 | 51.30305 | 10.21872 | 25498 ft | 424 kts | 182° |
| 2026-05-07 20:14 | 51.27366 | 10.21818 | 25155 ft | 421 kts | 182° |
| 2026-05-07 20:14 | 51.24437 | 10.21762 | 25084 ft | 420 kts | 182° |
| 2026-05-07 20:14 | 51.21517 | 10.21707 | 25105 ft | 421 kts | 182° |
| 2026-05-07 20:14 | 51.18623 | 10.21650 | 25107 ft | 421 kts | 182° |
| 2026-05-07 20:15 | 51.15699 | 10.21586 | 25103 ft | 421 kts | 182° |
| 2026-05-07 20:15 | 51.12773 | 10.21520 | 25106 ft | 421 kts | 182° |
| 2026-05-07 20:15 | 51.09846 | 10.21462 | 25107 ft | 421 kts | 182° |
| 2026-05-07 20:15 | 51.06911 | 10.21411 | 25101 ft | 425 kts | 182° |
| 2026-05-07 20:16 | 51.03920 | 10.21363 | 25106 ft | 433 kts | 182° |
| 2026-05-07 20:16 | 51.00896 | 10.21311 | 25105 ft | 434 kts | 182° |
| 2026-05-07 20:16 | 50.97879 | 10.21258 | 25106 ft | 435 kts | 182° |
| 2026-05-07 20:16 | 50.94848 | 10.21205 | 25104 ft | 435 kts | 182° |
| 2026-05-07 20:17 | 50.91832 | 10.21152 | 25100 ft | 435 kts | 182° |
| 2026-05-07 20:17 | 50.88842 | 10.21098 | 25097 ft | 435 kts | 182° |
| 2026-05-07 20:17 | 50.85836 | 10.20744 | 25096 ft | 433 kts | 193° |
| 2026-05-07 20:17 | 50.83018 | 10.19138 | 25105 ft | 430 kts | 208° |
| 2026-05-07 20:18 | 50.80505 | 10.16590 | 25106 ft | 429 kts | 219° |
| 2026-05-07 20:18 | 50.78291 | 10.13442 | 25103 ft | 429 kts | 227° |
| 2026-05-07 20:18 | 50.76402 | 10.09810 | 25105 ft | 428 kts | 236° |
| 2026-05-07 20:18 | 50.74911 | 10.05757 | 25106 ft | 427 kts | 243° |
| 2026-05-07 20:19 | 50.73554 | 10.01591 | 25098 ft | 427 kts | 244° |
| 2026-05-07 20:19 | 50.72207 | 9.97408 | 25102 ft | 427 kts | 244° |
| 2026-05-07 20:19 | 50.70866 | 9.93220 | 25104 ft | 427 kts | 244° |
| 2026-05-07 20:19 | 50.69550 | 9.89099 | 25103 ft | 427 kts | 244° |
| 2026-05-07 20:20 | 50.68211 | 9.84913 | 25108 ft | 427 kts | 244° |
| 2026-05-07 20:20 | 50.66869 | 9.80740 | 25103 ft | 427 kts | 244° |
| 2026-05-07 20:20 | 50.65512 | 9.76580 | 25104 ft | 427 kts | 242° |
| 2026-05-07 20:20 | 50.63877 | 9.72664 | 25113 ft | 428 kts | 232° |
| 2026-05-07 20:21 | 50.61867 | 9.69206 | 25107 ft | 429 kts | 224° |
| 2026-05-07 20:21 | 50.59527 | 9.66295 | 25106 ft | 430 kts | 214° |
| 2026-05-07 20:21 | 50.56909 | 9.63990 | 25108 ft | 432 kts | 205° |
| 2026-05-07 20:21 | 50.54161 | 9.62224 | 25106 ft | 432 kts | 206° |
| 2026-05-07 20:22 | 50.51564 | 9.59884 | 25104 ft | 430 kts | 217° |
| 2026-05-07 20:22 | 50.49322 | 9.56811 | 25097 ft | 429 kts | 228° |
| 2026-05-07 20:22 | 50.47458 | 9.53169 | 25102 ft | 427 kts | 237° |
| 2026-05-07 20:22 | 50.46001 | 9.49120 | 25093 ft | 426 kts | 246° |
| 2026-05-07 20:23 | 50.44981 | 9.44777 | 25105 ft | 425 kts | 254° |
| 2026-05-07 20:23 | 50.44135 | 9.40316 | 25098 ft | 425 kts | 254° |
| 2026-05-07 20:23 | 50.43291 | 9.35882 | 25099 ft | 425 kts | 254° |
| 2026-05-07 20:23 | 50.42269 | 9.31533 | 25104 ft | 425 kts | 245° |
| 2026-05-07 20:24 | 50.40814 | 9.27496 | 25085 ft | 426 kts | 236° |
| 2026-05-07 20:24 | 50.38976 | 9.23920 | 25100 ft | 428 kts | 227° |
| 2026-05-07 20:24 | 50.36763 | 9.20802 | 25099 ft | 429 kts | 218° |
| 2026-05-07 20:24 | 50.34273 | 9.18229 | 25099 ft | 430 kts | 213° |
| 2026-05-07 20:25 | 50.31736 | 9.15733 | 25073 ft | 430 kts | 216° |
| 2026-05-07 20:25 | 50.29434 | 9.12769 | 25083 ft | 428 kts | 226° |
| 2026-05-07 20:25 | 50.27481 | 9.09267 | 25094 ft | 426 kts | 235° |
| 2026-05-07 20:25 | 50.25920 | 9.05352 | 25087 ft | 425 kts | 244° |
| 2026-05-07 20:26 | 50.24755 | 9.01123 | 24945 ft | 424 kts | 251° |
| 2026-05-07 20:26 | 50.23748 | 8.96805 | 24695 ft | 422 kts | 250° |
| 2026-05-07 20:26 | 50.22744 | 8.92517 | 24429 ft | 419 kts | 250° |
| 2026-05-07 20:26 | 50.21742 | 8.88259 | 23984 ft | 417 kts | 250° |
| 2026-05-07 20:27 | 50.20741 | 8.84028 | 23508 ft | 414 kts | 250° |
| 2026-05-07 20:27 | 50.19761 | 8.79880 | 22988 ft | 411 kts | 250° |
| 2026-05-07 20:27 | 50.18775 | 8.75715 | 22465 ft | 408 kts | 250° |
| 2026-05-07 20:27 | 50.17798 | 8.71582 | 21966 ft | 405 kts | 250° |
| 2026-05-07 20:28 | 50.16827 | 8.67479 | 21449 ft | 402 kts | 250° |
| 2026-05-07 20:28 | 50.15862 | 8.63405 | 20964 ft | 399 kts | 250° |
| 2026-05-07 20:28 | 50.14900 | 8.59363 | 20479 ft | 396 kts | 250° |
| 2026-05-07 20:28 | 50.13944 | 8.55358 | 20002 ft | 394 kts | 250° |
| 2026-05-07 20:29 | 50.12988 | 8.51366 | 19475 ft | 391 kts | 250° |
| 2026-05-07 20:29 | 50.12040 | 8.47410 | 18935 ft | 389 kts | 250° |
| 2026-05-07 20:29 | 50.11096 | 8.43473 | 18423 ft | 387 kts | 250° |
| 2026-05-07 20:29 | 50.10156 | 8.39560 | 17836 ft | 384 kts | 250° |
| 2026-05-07 20:30 | 50.09219 | 8.35686 | 17243 ft | 382 kts | 250° |
| 2026-05-07 20:30 | 50.08280 | 8.31811 | 16663 ft | 380 kts | 250° |
| 2026-05-07 20:30 | 50.07362 | 8.28031 | 16097 ft | 378 kts | 250° |
| 2026-05-07 20:30 | 50.06433 | 8.24219 | 15543 ft | 376 kts | 250° |
| 2026-05-07 20:31 | 50.05509 | 8.20430 | 14997 ft | 374 kts | 249° |
| 2026-05-07 20:31 | 50.04588 | 8.16668 | 14455 ft | 371 kts | 249° |
| 2026-05-07 20:31 | 50.03672 | 8.12922 | 13926 ft | 369 kts | 249° |
| 2026-05-07 20:31 | 50.02764 | 8.09211 | 13339 ft | 366 kts | 249° |
| 2026-05-07 20:32 | 50.01862 | 8.05524 | 12758 ft | 363 kts | 249° |
| 2026-05-07 20:32 | 50.00966 | 8.01865 | 12186 ft | 360 kts | 249° |
| 2026-05-07 20:32 | 50.00077 | 7.98238 | 11597 ft | 358 kts | 249° |
| 2026-05-07 20:32 | 49.99191 | 7.94630 | 10980 ft | 357 kts | 249° |
| 2026-05-07 20:33 | 49.98335 | 7.91132 | 10779 ft | 343 kts | 249° |
| 2026-05-07 20:33 | 49.97503 | 7.87739 | 10652 ft | 329 kts | 249° |
| 2026-05-07 20:33 | 49.96707 | 7.84491 | 10521 ft | 316 kts | 249° |
| 2026-05-07 20:33 | 49.95931 | 7.81367 | 10407 ft | 303 kts | 246° |
| 2026-05-07 20:34 | 49.94776 | 7.78723 | 10274 ft | 293 kts | 224° |
| 2026-05-07 20:34 | 49.93089 | 7.77040 | 10049 ft | 288 kts | 200° |
| 2026-05-07 20:34 | 49.91128 | 7.76547 | 9908 ft | 289 kts | 178° |
| 2026-05-07 20:34 | 49.89180 | 7.77274 | 9772 ft | 290 kts | 155° |
| 2026-05-07 20:35 | 49.87567 | 7.79125 | 9635 ft | 291 kts | 131° |
| 2026-05-07 20:35 | 49.86552 | 7.81822 | 9501 ft | 291 kts | 108° |
| 2026-05-07 20:35 | 49.86298 | 7.84812 | 9362 ft | 280 kts | 85° |
| 2026-05-07 20:35 | 49.86743 | 7.87667 | 9234 ft | 268 kts | 69° |
| 2026-05-07 20:36 | 49.87387 | 7.90314 | 9088 ft | 258 kts | 68° |
| 2026-05-07 20:36 | 49.88027 | 7.92891 | 8803 ft | 255 kts | 68° |
| 2026-05-07 20:36 | 49.88662 | 7.95440 | 8481 ft | 253 kts | 68° |
| 2026-05-07 20:36 | 49.89292 | 7.97973 | 8167 ft | 251 kts | 68° |
| 2026-05-07 20:37 | 49.89916 | 8.00505 | 7855 ft | 250 kts | 68° |
| 2026-05-07 20:37 | 49.90529 | 8.03013 | 7533 ft | 248 kts | 68° |
| 2026-05-07 20:37 | 49.91134 | 8.05483 | 7154 ft | 250 kts | 68° |
| 2026-05-07 20:37 | 49.91765 | 8.08055 | 6568 ft | 260 kts | 68° |
| 2026-05-07 20:38 | 49.92408 | 8.10684 | 6161 ft | 260 kts | 68° |
| 2026-05-07 20:38 | 49.93025 | 8.13213 | 5798 ft | 239 kts | 68° |
| 2026-05-07 20:38 | 49.93590 | 8.15530 | 5492 ft | 222 kts | 68° |
| 2026-05-07 20:38 | 49.94127 | 8.17734 | 5202 ft | 217 kts | 68° |
| 2026-05-07 20:39 | 49.94657 | 8.19906 | 4914 ft | 213 kts | 68° |
| 2026-05-07 20:39 | 49.95169 | 8.22013 | 4624 ft | 205 kts | 68° |
| 2026-05-07 20:39 | 49.95666 | 8.24056 | 4365 ft | 197 kts | 68° |
| 2026-05-07 20:39 | 49.96136 | 8.25991 | 4087 ft | 186 kts | 68° |
| 2026-05-07 20:40 | 49.96571 | 8.27784 | 3829 ft | 174 kts | 68° |
| 2026-05-07 20:40 | 49.96981 | 8.29478 | 3620 ft | 160 kts | 68° |
| 2026-05-07 20:40 | 49.97357 | 8.31028 | 3411 ft | 149 kts | 68° |
| 2026-05-07 20:40 | 49.97716 | 8.32510 | 3211 ft | 145 kts | 68° |
| 2026-05-07 20:41 | 49.98068 | 8.33963 | 3013 ft | 143 kts | 69° |
| 2026-05-07 20:41 | 49.98415 | 8.35400 | 2826 ft | 142 kts | 69° |
| 2026-05-07 20:41 | 49.98760 | 8.36825 | 2628 ft | 141 kts | 69° |
| 2026-05-07 20:41 | 49.99102 | 8.38242 | 2447 ft | 140 kts | 69° |
| 2026-05-07 20:42 | 49.99444 | 8.39658 | 2247 ft | 139 kts | 69° |
| 2026-05-07 20:42 | 49.99776 | 8.41035 | 2060 ft | 138 kts | 69° |
| 2026-05-07 20:42 | 50.00111 | 8.42427 | 1876 ft | 137 kts | 69° |
| 2026-05-07 20:42 | 50.00444 | 8.43811 | 1686 ft | 136 kts | 70° |
| 2026-05-07 20:43 | 50.00771 | 8.45199 | 1442 ft | 137 kts | 71° |
| 2026-05-07 20:43 | 50.01100 | 8.46582 | 1191 ft | 137 kts | 70° |
| 2026-05-07 20:43 | 50.01423 | 8.47967 | 1045 ft | 136 kts | 69° |
| 2026-05-07 20:43 | 50.01766 | 8.49339 | 922 ft | 136 kts | 69° |
| 2026-05-07 20:44 | 50.02114 | 8.50704 | 762 ft | 135 kts | 68° |
| 2026-05-07 20:44 | 50.02448 | 8.52072 | 571 ft | 135 kts | 71° |
| 2026-05-07 20:44 | 50.02758 | 8.53425 | 399 ft | 134 kts | 70° |
| 2026-05-07 20:44 | 50.03065 | 8.54734 | 336 ft | 119 kts | 70° |
| 2026-05-07 20:45 | 50.03329 | 8.55873 | 406 ft | 120 kts | 68° |
| 2026-05-07 20:45 | 50.03620 | 8.57130 | 1041 ft | 127 kts | 70° |
| 2026-05-07 20:45 | 50.03916 | 8.58444 | 1711 ft | 132 kts | 70° |
| 2026-05-07 20:45 | 50.04223 | 8.59832 | 2039 ft | 142 kts | 71° |
| 2026-05-07 20:46 | 50.04550 | 8.61377 | 2250 ft | 158 kts | 71° |
| 2026-05-07 20:46 | 50.04907 | 8.63065 | 2473 ft | 167 kts | 71° |
| 2026-05-07 20:46 | 50.05270 | 8.64770 | 2857 ft | 165 kts | 71° |
| 2026-05-07 20:46 | 50.05611 | 8.66477 | 3249 ft | 165 kts | 77° |
| 2026-05-07 20:47 | 50.05465 | 8.68230 | 3617 ft | 167 kts | 111° |
| 2026-05-07 20:47 | 50.04719 | 8.69637 | 3920 ft | 172 kts | 139° |
| 2026-05-07 20:47 | 50.03755 | 8.70772 | 4237 ft | 177 kts | 143° |
| 2026-05-07 20:47 | 50.02719 | 8.71931 | 4536 ft | 191 kts | 144° |
| 2026-05-07 20:48 | 50.01601 | 8.73180 | 4882 ft | 206 kts | 144° |
| 2026-05-07 20:48 | 50.00382 | 8.74550 | 4980 ft | 234 kts | 144° |
| 2026-05-07 20:48 | 49.98985 | 8.76029 | 5005 ft | 248 kts | 154° |
| 2026-05-07 20:48 | 49.97358 | 8.76947 | 5012 ft | 250 kts | 168° |
| 2026-05-07 20:49 | 49.95641 | 8.77376 | 5015 ft | 250 kts | 173° |
| 2026-05-07 20:49 | 49.93913 | 8.77674 | 5010 ft | 250 kts | 179° |
| 2026-05-07 20:49 | 49.92242 | 8.77119 | 5008 ft | 247 kts | 210° |
| 2026-05-07 20:49 | 49.90830 | 8.75601 | 5014 ft | 247 kts | 222° |
| 2026-05-07 20:50 | 49.89836 | 8.73472 | 5007 ft | 245 kts | 248° |
| 2026-05-07 20:50 | 49.89259 | 8.70985 | 5007 ft | 245 kts | 253° |
| 2026-05-07 20:50 | 49.88746 | 8.68459 | 5011 ft | 245 kts | 254° |
| 2026-05-07 20:50 | 49.88242 | 8.65934 | 5005 ft | 245 kts | 254° |
| 2026-05-07 20:51 | 49.87746 | 8.63440 | 5009 ft | 246 kts | 254° |
| 2026-05-07 20:51 | 49.87243 | 8.60907 | 5012 ft | 246 kts | 254° |
| 2026-05-07 20:51 | 49.86738 | 8.58375 | 5015 ft | 246 kts | 254° |
| 2026-05-07 20:51 | 49.86235 | 8.55848 | 5007 ft | 246 kts | 253° |
| 2026-05-07 20:52 | 49.85733 | 8.53316 | 5009 ft | 246 kts | 254° |
| 2026-05-07 20:52 | 49.85231 | 8.50781 | 5011 ft | 246 kts | 254° |
| 2026-05-07 20:52 | 49.84730 | 8.48249 | 5004 ft | 246 kts | 254° |
| 2026-05-07 20:52 | 49.84226 | 8.45711 | 5004 ft | 246 kts | 253° |
| 2026-05-07 20:53 | 49.83725 | 8.43179 | 5010 ft | 246 kts | 253° |
| 2026-05-07 20:53 | 49.83223 | 8.40644 | 5019 ft | 246 kts | 253° |
| 2026-05-07 20:53 | 49.82730 | 8.38144 | 5008 ft | 246 kts | 254° |
| 2026-05-07 20:53 | 49.82230 | 8.35608 | 5013 ft | 246 kts | 254° |
| 2026-05-07 20:54 | 49.81731 | 8.33071 | 5012 ft | 246 kts | 255° |
| 2026-05-07 20:54 | 49.81563 | 8.30448 | 4897 ft | 245 kts | 279° |
| 2026-05-07 20:54 | 49.82142 | 8.28011 | 4710 ft | 242 kts | 305° |
| 2026-05-07 20:54 | 49.83339 | 8.26238 | 4539 ft | 240 kts | 331° |
| 2026-05-07 20:55 | 49.84845 | 8.25100 | 4355 ft | 240 kts | 335° |
| 2026-05-07 20:55 | 49.86351 | 8.23995 | 4177 ft | 240 kts | 335° |
| 2026-05-07 20:55 | 49.87842 | 8.22899 | 4052 ft | 240 kts | 335° |
| 2026-05-07 20:55 | 49.89334 | 8.21797 | 4010 ft | 232 kts | 335° |
| 2026-05-07 20:56 | 49.90783 | 8.20986 | 4011 ft | 214 kts | 351° |
| 2026-05-07 20:56 | 49.92243 | 8.20907 | 4014 ft | 208 kts | 8° |
| 2026-05-07 20:56 | 49.93630 | 8.21514 | 4019 ft | 208 kts | 25° |
| 2026-05-07 20:56 | 49.94828 | 8.22745 | 4021 ft | 207 kts | 43° |
| 2026-05-07 20:57 | 49.95704 | 8.24449 | 4037 ft | 195 kts | 60° |
| 2026-05-07 20:57 | 49.96222 | 8.26351 | 3958 ft | 190 kts | 69° |
| 2026-05-07 20:57 | 49.96678 | 8.28230 | 3750 ft | 187 kts | 69° |
| 2026-05-07 20:57 | 49.97124 | 8.30068 | 3528 ft | 178 kts | 69° |
| 2026-05-07 20:58 | 49.97549 | 8.31821 | 3322 ft | 167 kts | 69° |
| 2026-05-07 20:58 | 49.97946 | 8.33462 | 3083 ft | 157 kts | 69° |
| 2026-05-07 20:58 | 49.98321 | 8.35008 | 2865 ft | 149 kts | 69° |
| 2026-05-07 20:58 | 49.98675 | 8.36474 | 2671 ft | 142 kts | 69° |
| 2026-05-07 20:59 | 49.99018 | 8.37895 | 2478 ft | 139 kts | 69° |
| 2026-05-07 20:59 | 49.99358 | 8.39300 | 2292 ft | 138 kts | 69° |
| 2026-05-07 20:59 | 49.99692 | 8.40688 | 2104 ft | 137 kts | 69° |
| 2026-05-07 20:59 | 50.00020 | 8.42048 | 1920 ft | 136 kts | 70° |
| 2026-05-07 21:00 | 50.00352 | 8.43425 | 1736 ft | 135 kts | 69° |
| 2026-05-07 21:00 | 50.00681 | 8.44793 | 1566 ft | 135 kts | 70° |
| 2026-05-07 21:00 | 50.00996 | 8.46171 | 1379 ft | 135 kts | 72° |
| 2026-05-07 21:00 | 50.01312 | 8.47553 | 1218 ft | 136 kts | 69° |
| 2026-05-07 21:01 | 50.01655 | 8.48924 | 1051 ft | 137 kts | 69° |
| 2026-05-07 21:01 | 50.01992 | 8.50300 | 807 ft | 135 kts | 68° |
| 2026-05-07 21:01 | 50.02329 | 8.51669 | 655 ft | 136 kts | 68° |
| 2026-05-07 21:01 | 50.02652 | 8.53023 | 448 ft | 135 kts | 66° |
| 2026-05-07 21:02 | 50.02979 | 8.54369 | 340 ft | 126 kts | 68° |
| 2026-05-07 21:02 | 50.03235 | 8.55436 | 350 ft | 79 kts | 69° |
| 2026-05-07 21:02 | 50.03402 | 8.56124 | 351 ft | 60 kts | 71° |
| 2026-05-07 21:02 | 50.03535 | 8.56681 | 359 ft | 51 kts | 69° |
| 2026-05-07 21:03 | 50.03597 | 8.57097 | 353 ft | 27 kts | 106° |
| 2026-05-07 21:03 | 50.03556 | 8.57273 | 355 ft | 6 kts | 115° |
| 2026-05-07 21:03 | 50.03543 | 8.57314 | 355 ft | 0 kts | 115° |
| 2026-05-07 21:04 | 50.03531 | 8.57352 | 359 ft | 9 kts | 119° |
| 2026-05-07 21:05 | 50.03481 | 8.57420 | 361 ft | 9 kts | 154° |
| 2026-05-07 21:05 | 50.03426 | 8.57454 | 355 ft | 8 kts | 159° |
| 2026-05-07 21:05 | 50.03376 | 8.57483 | 357 ft | 7 kts | 159° |
| 2026-05-07 21:05 | 50.03332 | 8.57508 | 361 ft | 6 kts | 160° |
| 2026-05-07 21:06 | 50.03307 | 8.57513 | 354 ft | 5 kts | 182° |
| 2026-05-07 21:06 | 50.03279 | 8.57487 | 363 ft | 4 kts | 218° |
| 2026-05-07 21:06 | 50.03256 | 8.57469 | 360 ft | 2 kts | 203° |
| 2026-05-07 21:06 | 50.03236 | 8.57455 | 359 ft | 4 kts | 203° |
| 2026-05-07 21:07 | 50.03196 | 8.57426 | 361 ft | 9 kts | 205° |
| 2026-05-07 21:07 | 50.03169 | 8.57407 | 360 ft | 0 kts | 205° |